sensor_id;sensor_type;location;lat;lon;timestamp;P1;durP1;ratioP1;P2;durP2;ratioP2
43813;SDS011;29669;55.706;37.656;2022-09-29T00:14:24;6.60;;;4.32;;
43813;SDS011;29669;55.706;37.656;2022-09-29T00:17:15;7.05;;;5.78;;
43813;SDS011;29669;55.706;37.656;2022-09-29T00:20:03;7.25;;;4.80;;
43813;SDS011;29669;55.706;37.656;2022-09-29T00:22:51;8.38;;;4.20;;
43813;SDS011;29669;55.706;37.656;2022-09-29T00:25:39;6.68;;;5.18;;
43813;SDS011;29669;55.706;37.656;2022-09-29T00:28:28;6.10;;;3.95;;
43813;SDS011;29669;55.706;37.656;2022-09-29T00:31:17;4.78;;;3.60;;
43813;SDS011;29669;55.706;37.656;2022-09-29T00:34:05;8.38;;;4.40;;
43813;SDS011;29669;55.706;37.656;2022-09-29T00:36:54;5.30;;;3.90;;
43813;SDS011;29669;55.706;37.656;2022-09-29T00:39:42;8.20;;;4.13;;
43813;SDS011;29669;55.706;37.656;2022-09-29T00:42:32;6.18;;;4.07;;
43813;SDS011;29669;55.706;37.656;2022-09-29T00:45:21;4.32;;;3.80;;
43813;SDS011;29669;55.706;37.656;2022-09-29T00:48:12;6.15;;;3.75;;
43813;SDS011;29669;55.706;37.656;2022-09-29T00:51:04;4.43;;;3.50;;
43813;SDS011;29669;55.706;37.656;2022-09-29T00:53:53;5.35;;;3.90;;
43813;SDS011;29669;55.706;37.656;2022-09-29T00:56:44;7.80;;;3.90;;
43813;SDS011;29669;55.706;37.656;2022-09-29T00:59:39;9.90;;;4.40;;
43813;SDS011;29669;55.706;37.656;2022-09-29T01:02:37;5.68;;;3.55;;
43813;SDS011;29669;55.706;37.656;2022-09-29T01:05:42;4.68;;;3.78;;
43813;SDS011;29669;55.706;37.656;2022-09-29T01:08:52;4.18;;;3.60;;
43813;SDS011;29669;55.706;37.656;2022-09-29T01:11:56;5.25;;;3.80;;
43813;SDS011;29669;55.706;37.656;2022-09-29T01:14:47;4.85;;;4.10;;
43813;SDS011;29669;55.706;37.656;2022-09-29T01:17:38;6.97;;;4.35;;
43813;SDS011;29669;55.706;37.656;2022-09-29T01:20:30;4.93;;;3.83;;
43813;SDS011;29669;55.706;37.656;2022-09-29T01:23:45;4.28;;;3.60;;
43813;SDS011;29669;55.706;37.656;2022-09-29T01:53:54;5.03;;;3.35;;
43813;SDS011;29669;55.706;37.656;2022-09-29T02:03:33;5.40;;;3.65;;
43813;SDS011;29669;55.706;37.656;2022-09-29T02:06:27;5.68;;;3.03;;
43813;SDS011;29669;55.706;37.656;2022-09-29T02:09:27;6.10;;;3.20;;
43813;SDS011;29669;55.706;37.656;2022-09-29T02:12:21;6.82;;;3.30;;
43813;SDS011;29669;55.706;37.656;2022-09-29T02:15:48;4.25;;;3.42;;
43813;SDS011;29669;55.706;37.656;2022-09-29T02:18:51;3.75;;;2.95;;
43813;SDS011;29669;55.706;37.656;2022-09-29T02:21:56;6.40;;;3.65;;
43813;SDS011;29669;55.706;37.656;2022-09-29T02:24:58;3.70;;;3.08;;
43813;SDS011;29669;55.706;37.656;2022-09-29T02:27:49;5.57;;;3.30;;
43813;SDS011;29669;55.706;37.656;2022-09-29T02:30:46;3.60;;;2.90;;
43813;SDS011;29669;55.706;37.656;2022-09-29T03:02:23;4.10;;;3.13;;
43813;SDS011;29669;55.706;37.656;2022-09-29T03:05:16;12.57;;;4.20;;
43813;SDS011;29669;55.706;37.656;2022-09-29T03:08:07;5.03;;;3.90;;
43813;SDS011;29669;55.706;37.656;2022-09-29T03:10:57;3.90;;;3.20;;
43813;SDS011;29669;55.706;37.656;2022-09-29T03:14:16;5.05;;;3.67;;
43813;SDS011;29669;55.706;37.656;2022-09-29T03:17:05;4.68;;;3.63;;
43813;SDS011;29669;55.706;37.656;2022-09-29T03:19:54;8.82;;;4.00;;
43813;SDS011;29669;55.706;37.656;2022-09-29T03:22:47;6.38;;;3.80;;
43813;SDS011;29669;55.706;37.656;2022-09-29T03:25:38;5.97;;;4.22;;
43813;SDS011;29669;55.706;37.656;2022-09-29T03:28:26;8.07;;;4.07;;
43813;SDS011;29669;55.706;37.656;2022-09-29T03:31:15;6.90;;;4.05;;
43813;SDS011;29669;55.706;37.656;2022-09-29T03:34:07;6.75;;;4.25;;
43813;SDS011;29669;55.706;37.656;2022-09-29T03:36:58;7.07;;;4.55;;
43813;SDS011;29669;55.706;37.656;2022-09-29T03:39:51;6.03;;;4.38;;
43813;SDS011;29669;55.706;37.656;2022-09-29T03:42:40;6.75;;;4.55;;
43813;SDS011;29669;55.706;37.656;2022-09-29T03:45:28;9.60;;;4.60;;
43813;SDS011;29669;55.706;37.656;2022-09-29T03:48:17;8.82;;;4.93;;
43813;SDS011;29669;55.706;37.656;2022-09-29T03:51:09;9.40;;;4.88;;
43813;SDS011;29669;55.706;37.656;2022-09-29T03:53:58;10.38;;;5.25;;
43813;SDS011;29669;55.706;37.656;2022-09-29T03:56:46;10.13;;;5.38;;
43813;SDS011;29669;55.706;37.656;2022-09-29T03:59:35;10.82;;;4.60;;
43813;SDS011;29669;55.706;37.656;2022-09-29T04:02:23;7.60;;;4.63;;
43813;SDS011;29669;55.706;37.656;2022-09-29T04:05:11;10.50;;;5.90;;
43813;SDS011;29669;55.706;37.656;2022-09-29T04:08:00;8.25;;;5.05;;
43813;SDS011;29669;55.706;37.656;2022-09-29T04:10:48;7.50;;;4.80;;
43813;SDS011;29669;55.706;37.656;2022-09-29T04:13:36;10.10;;;4.90;;
43813;SDS011;29669;55.706;37.656;2022-09-29T04:16:25;9.48;;;4.68;;
43813;SDS011;29669;55.706;37.656;2022-09-29T04:19:13;7.43;;;4.68;;
43813;SDS011;29669;55.706;37.656;2022-09-29T04:22:01;8.43;;;5.00;;
43813;SDS011;29669;55.706;37.656;2022-09-29T04:24:49;7.82;;;4.93;;
43813;SDS011;29669;55.706;37.656;2022-09-29T04:27:38;6.93;;;5.13;;
43813;SDS011;29669;55.706;37.656;2022-09-29T04:30:27;9.90;;;4.82;;
43813;SDS011;29669;55.706;37.656;2022-09-29T04:33:15;10.40;;;4.57;;
43813;SDS011;29669;55.706;37.656;2022-09-29T04:36:04;7.30;;;4.70;;
43813;SDS011;29669;55.706;37.656;2022-09-29T04:38:54;8.52;;;5.07;;
43813;SDS011;29669;55.706;37.656;2022-09-29T04:41:43;7.13;;;4.93;;
43813;SDS011;29669;55.706;37.656;2022-09-29T04:44:33;8.50;;;4.50;;
43813;SDS011;29669;55.706;37.656;2022-09-29T04:47:21;8.35;;;5.40;;
43813;SDS011;29669;55.706;37.656;2022-09-29T04:50:09;6.35;;;4.72;;
43813;SDS011;29669;55.706;37.656;2022-09-29T04:52:58;10.00;;;5.53;;
43813;SDS011;29669;55.706;37.656;2022-09-29T04:55:48;9.18;;;5.72;;
43813;SDS011;29669;55.706;37.656;2022-09-29T04:58:36;8.75;;;5.05;;
43813;SDS011;29669;55.706;37.656;2022-09-29T05:01:25;13.70;;;5.43;;
43813;SDS011;29669;55.706;37.656;2022-09-29T05:04:14;7.47;;;4.30;;
43813;SDS011;29669;55.706;37.656;2022-09-29T05:07:19;8.77;;;5.10;;
43813;SDS011;29669;55.706;37.656;2022-09-29T05:10:08;10.52;;;5.68;;
43813;SDS011;29669;55.706;37.656;2022-09-29T05:12:57;9.25;;;4.82;;
43813;SDS011;29669;55.706;37.656;2022-09-29T05:15:46;8.65;;;4.80;;
43813;SDS011;29669;55.706;37.656;2022-09-29T05:18:34;10.32;;;5.78;;
43813;SDS011;29669;55.706;37.656;2022-09-29T05:21:22;7.78;;;5.47;;
43813;SDS011;29669;55.706;37.656;2022-09-29T05:24:15;7.65;;;5.20;;
43813;SDS011;29669;55.706;37.656;2022-09-29T05:27:04;9.50;;;5.35;;
43813;SDS011;29669;55.706;37.656;2022-09-29T05:29:52;9.43;;;5.13;;
43813;SDS011;29669;55.706;37.656;2022-09-29T05:32:41;10.32;;;6.32;;
43813;SDS011;29669;55.706;37.656;2022-09-29T05:35:31;11.55;;;4.50;;
43813;SDS011;29669;55.706;37.656;2022-09-29T05:38:20;5.88;;;4.68;;
43813;SDS011;29669;55.706;37.656;2022-09-29T05:41:10;8.32;;;5.50;;
43813;SDS011;29669;55.706;37.656;2022-09-29T05:44:00;6.40;;;4.95;;
43813;SDS011;29669;55.706;37.656;2022-09-29T05:46:48;10.68;;;5.22;;
43813;SDS011;29669;55.706;37.656;2022-09-29T05:49:37;9.77;;;5.50;;
43813;SDS011;29669;55.706;37.656;2022-09-29T05:52:26;10.57;;;6.05;;
43813;SDS011;29669;55.706;37.656;2022-09-29T05:55:14;8.45;;;5.28;;
43813;SDS011;29669;55.706;37.656;2022-09-29T05:58:06;13.13;;;6.28;;
43813;SDS011;29669;55.706;37.656;2022-09-29T06:00:55;13.52;;;6.50;;
43813;SDS011;29669;55.706;37.656;2022-09-29T06:03:47;12.70;;;6.82;;
43813;SDS011;29669;55.706;37.656;2022-09-29T06:06:36;12.88;;;6.68;;
43813;SDS011;29669;55.706;37.656;2022-09-29T06:09:27;13.15;;;6.90;;
43813;SDS011;29669;55.706;37.656;2022-09-29T06:12:15;14.85;;;6.72;;
43813;SDS011;29669;55.706;37.656;2022-09-29T06:15:08;15.65;;;8.23;;
43813;SDS011;29669;55.706;37.656;2022-09-29T06:17:57;13.68;;;8.57;;
43813;SDS011;29669;55.706;37.656;2022-09-29T06:20:46;14.98;;;7.93;;
43813;SDS011;29669;55.706;37.656;2022-09-29T06:27:01;12.23;;;8.70;;
43813;SDS011;29669;55.706;37.656;2022-09-29T06:33:07;18.15;;;8.77;;
43813;SDS011;29669;55.706;37.656;2022-09-29T06:35:56;13.60;;;8.02;;
43813;SDS011;29669;55.706;37.656;2022-09-29T06:39:04;12.35;;;7.78;;
43813;SDS011;29669;55.706;37.656;2022-09-29T06:41:53;17.98;;;8.88;;
43813;SDS011;29669;55.706;37.656;2022-09-29T06:44:46;15.80;;;8.25;;
43813;SDS011;29669;55.706;37.656;2022-09-29T06:47:41;17.65;;;8.57;;
43813;SDS011;29669;55.706;37.656;2022-09-29T06:50:43;12.30;;;7.53;;
43813;SDS011;29669;55.706;37.656;2022-09-29T06:54:17;13.45;;;7.78;;
43813;SDS011;29669;55.706;37.656;2022-09-29T06:57:30;14.20;;;7.78;;
43813;SDS011;29669;55.706;37.656;2022-09-29T07:00:24;12.38;;;7.45;;
43813;SDS011;29669;55.706;37.656;2022-09-29T07:03:13;10.15;;;6.70;;
43813;SDS011;29669;55.706;37.656;2022-09-29T07:06:02;13.52;;;8.07;;
43813;SDS011;29669;55.706;37.656;2022-09-29T07:09:06;13.95;;;6.90;;
43813;SDS011;29669;55.706;37.656;2022-09-29T07:11:57;13.88;;;7.80;;
43813;SDS011;29669;55.706;37.656;2022-09-29T07:14:46;12.55;;;7.25;;
43813;SDS011;29669;55.706;37.656;2022-09-29T07:17:35;13.05;;;7.78;;
43813;SDS011;29669;55.706;37.656;2022-09-29T07:20:24;15.73;;;7.80;;
43813;SDS011;29669;55.706;37.656;2022-09-29T07:23:13;12.60;;;7.30;;
43813;SDS011;29669;55.706;37.656;2022-09-29T07:26:02;14.55;;;8.02;;
43813;SDS011;29669;55.706;37.656;2022-09-29T07:28:51;11.40;;;7.57;;
43813;SDS011;29669;55.706;37.656;2022-09-29T07:31:39;12.07;;;7.55;;
43813;SDS011;29669;55.706;37.656;2022-09-29T07:34:37;14.43;;;8.07;;
43813;SDS011;29669;55.706;37.656;2022-09-29T07:37:25;13.18;;;7.93;;
43813;SDS011;29669;55.706;37.656;2022-09-29T07:40:14;13.73;;;8.10;;
43813;SDS011;29669;55.706;37.656;2022-09-29T07:43:03;11.93;;;7.22;;
43813;SDS011;29669;55.706;37.656;2022-09-29T07:45:51;13.05;;;8.20;;
43813;SDS011;29669;55.706;37.656;2022-09-29T07:48:44;9.88;;;7.28;;
43813;SDS011;29669;55.706;37.656;2022-09-29T07:51:34;17.50;;;8.63;;
43813;SDS011;29669;55.706;37.656;2022-09-29T07:54:22;13.57;;;7.63;;
43813;SDS011;29669;55.706;37.656;2022-09-29T07:57:15;17.40;;;9.20;;
43813;SDS011;29669;55.706;37.656;2022-09-29T08:00:04;12.98;;;6.95;;
43813;SDS011;29669;55.706;37.656;2022-09-29T08:02:58;14.88;;;7.75;;
43813;SDS011;29669;55.706;37.656;2022-09-29T08:05:49;18.63;;;7.95;;
43813;SDS011;29669;55.706;37.656;2022-09-29T08:08:37;13.88;;;7.82;;
43813;SDS011;29669;55.706;37.656;2022-09-29T08:11:26;13.93;;;7.93;;
43813;SDS011;29669;55.706;37.656;2022-09-29T08:14:18;13.38;;;7.75;;
43813;SDS011;29669;55.706;37.656;2022-09-29T08:17:07;12.85;;;8.10;;
43813;SDS011;29669;55.706;37.656;2022-09-29T08:19:55;14.13;;;8.48;;
43813;SDS011;29669;55.706;37.656;2022-09-29T08:22:44;11.75;;;7.32;;
43813;SDS011;29669;55.706;37.656;2022-09-29T08:25:33;13.20;;;8.05;;
43813;SDS011;29669;55.706;37.656;2022-09-29T08:28:23;13.80;;;7.97;;
43813;SDS011;29669;55.706;37.656;2022-09-29T08:31:19;13.50;;;7.53;;
43813;SDS011;29669;55.706;37.656;2022-09-29T08:34:08;13.75;;;8.07;;
43813;SDS011;29669;55.706;37.656;2022-09-29T08:36:57;13.88;;;7.65;;
43813;SDS011;29669;55.706;37.656;2022-09-29T08:39:47;10.25;;;7.65;;
43813;SDS011;29669;55.706;37.656;2022-09-29T08:45:37;10.32;;;7.50;;
43813;SDS011;29669;55.706;37.656;2022-09-29T08:48:44;12.73;;;7.20;;
43813;SDS011;29669;55.706;37.656;2022-09-29T08:51:47;11.95;;;7.55;;
43813;SDS011;29669;55.706;37.656;2022-09-29T08:54:40;16.30;;;7.65;;
43813;SDS011;29669;55.706;37.656;2022-09-29T08:57:34;13.70;;;8.07;;
43813;SDS011;29669;55.706;37.656;2022-09-29T09:00:29;10.65;;;7.65;;
43813;SDS011;29669;55.706;37.656;2022-09-29T09:24:58;12.80;;;8.02;;
43813;SDS011;29669;55.706;37.656;2022-09-29T09:27:55;12.57;;;8.03;;
43813;SDS011;29669;55.706;37.656;2022-09-29T09:33:55;12.82;;;8.30;;
43813;SDS011;29669;55.706;37.656;2022-09-29T09:37:03;19.05;;;8.27;;
43813;SDS011;29669;55.706;37.656;2022-09-29T09:40:02;14.55;;;8.77;;
43813;SDS011;29669;55.706;37.656;2022-09-29T09:55:14;18.65;;;8.52;;
43813;SDS011;29669;55.706;37.656;2022-09-29T10:01:25;19.50;;;8.13;;
43813;SDS011;29669;55.706;37.656;2022-09-29T10:04:29;11.02;;;7.38;;
43813;SDS011;29669;55.706;37.656;2022-09-29T10:07:18;12.25;;;7.32;;
43813;SDS011;29669;55.706;37.656;2022-09-29T10:10:13;11.57;;;7.53;;
43813;SDS011;29669;55.706;37.656;2022-09-29T10:13:11;14.88;;;7.63;;
43813;SDS011;29669;55.706;37.656;2022-09-29T10:16:08;19.13;;;8.48;;
43813;SDS011;29669;55.706;37.656;2022-09-29T10:19:03;12.23;;;8.43;;
43813;SDS011;29669;55.706;37.656;2022-09-29T10:21:52;13.75;;;7.45;;
43813;SDS011;29669;55.706;37.656;2022-09-29T10:24:40;10.10;;;6.72;;
43813;SDS011;29669;55.706;37.656;2022-09-29T10:27:28;12.75;;;7.22;;
43813;SDS011;29669;55.706;37.656;2022-09-29T10:30:24;11.95;;;6.70;;
43813;SDS011;29669;55.706;37.656;2022-09-29T10:33:21;10.90;;;6.97;;
43813;SDS011;29669;55.706;37.656;2022-09-29T10:36:12;10.23;;;7.20;;
43813;SDS011;29669;55.706;37.656;2022-09-29T10:39:00;10.77;;;6.63;;
43813;SDS011;29669;55.706;37.656;2022-09-29T10:41:50;15.85;;;7.57;;
43813;SDS011;29669;55.706;37.656;2022-09-29T10:44:41;16.35;;;7.75;;
43813;SDS011;29669;55.706;37.656;2022-09-29T10:47:30;13.75;;;6.80;;
43813;SDS011;29669;55.706;37.656;2022-09-29T10:50:21;13.48;;;8.02;;
43813;SDS011;29669;55.706;37.656;2022-09-29T10:53:46;13.18;;;7.38;;
43813;SDS011;29669;55.706;37.656;2022-09-29T10:56:29;12.80;;;6.60;;
43813;SDS011;29669;55.706;37.656;2022-09-29T10:59:17;9.77;;;6.45;;
43813;SDS011;29669;55.706;37.656;2022-09-29T11:02:09;12.07;;;7.05;;
43813;SDS011;29669;55.706;37.656;2022-09-29T11:05:20;12.25;;;7.03;;
43813;SDS011;29669;55.706;37.656;2022-09-29T11:08:13;12.10;;;7.40;;
43813;SDS011;29669;55.706;37.656;2022-09-29T11:11:03;9.35;;;6.65;;
43813;SDS011;29669;55.706;37.656;2022-09-29T11:13:52;11.13;;;6.20;;
43813;SDS011;29669;55.706;37.656;2022-09-29T11:16:42;11.07;;;7.22;;
43813;SDS011;29669;55.706;37.656;2022-09-29T11:19:40;12.68;;;6.82;;
43813;SDS011;29669;55.706;37.656;2022-09-29T11:28:53;12.38;;;6.93;;
43813;SDS011;29669;55.706;37.656;2022-09-29T11:38:30;10.40;;;6.50;;
43813;SDS011;29669;55.706;37.656;2022-09-29T11:41:41;13.10;;;6.68;;
43813;SDS011;29669;55.706;37.656;2022-09-29T11:45:00;11.60;;;6.00;;
43813;SDS011;29669;55.706;37.656;2022-09-29T11:48:19;10.95;;;5.90;;
43813;SDS011;29669;55.706;37.656;2022-09-29T11:54:15;12.82;;;5.93;;
43813;SDS011;29669;55.706;37.656;2022-09-29T11:57:34;16.15;;;6.72;;
43813;SDS011;29669;55.706;37.656;2022-09-29T12:06:54;10.38;;;5.95;;
43813;SDS011;29669;55.706;37.656;2022-09-29T12:09:53;16.67;;;6.50;;
43813;SDS011;29669;55.706;37.656;2022-09-29T12:16:23;9.95;;;6.45;;
43813;SDS011;29669;55.706;37.656;2022-09-29T12:19:30;9.70;;;6.15;;
43813;SDS011;29669;55.706;37.656;2022-09-29T12:22:24;7.63;;;5.43;;
43813;SDS011;29669;55.706;37.656;2022-09-29T12:25:14;8.73;;;5.60;;
43813;SDS011;29669;55.706;37.656;2022-09-29T12:28:06;11.60;;;6.05;;
43813;SDS011;29669;55.706;37.656;2022-09-29T12:34:54;12.30;;;5.93;;
43813;SDS011;29669;55.706;37.656;2022-09-29T12:44:42;15.18;;;6.22;;
43813;SDS011;29669;55.706;37.656;2022-09-29T12:47:44;13.05;;;5.00;;
43813;SDS011;29669;55.706;37.656;2022-09-29T12:54:23;12.73;;;5.65;;
43813;SDS011;29669;55.706;37.656;2022-09-29T12:57:33;12.57;;;5.80;;
43813;SDS011;29669;55.706;37.656;2022-09-29T13:00:33;9.35;;;5.40;;
43813;SDS011;29669;55.706;37.656;2022-09-29T13:03:29;7.75;;;5.00;;
43813;SDS011;29669;55.706;37.656;2022-09-29T13:06:39;9.02;;;5.28;;
43813;SDS011;29669;55.706;37.656;2022-09-29T13:16:04;11.40;;;6.38;;
43813;SDS011;29669;55.706;37.656;2022-09-29T13:19:27;8.32;;;5.40;;
43813;SDS011;29669;55.706;37.656;2022-09-29T13:26:15;8.60;;;5.72;;
43813;SDS011;29669;55.706;37.656;2022-09-29T13:29:26;10.90;;;5.70;;
43813;SDS011;29669;55.706;37.656;2022-09-29T13:32:17;13.27;;;6.30;;
43813;SDS011;29669;55.706;37.656;2022-09-29T13:35:10;19.35;;;6.43;;
43813;SDS011;29669;55.706;37.656;2022-09-29T13:38:04;15.15;;;6.88;;
43813;SDS011;29669;55.706;37.656;2022-09-29T13:44:20;16.90;;;6.93;;
43813;SDS011;29669;55.706;37.656;2022-09-29T13:47:34;17.65;;;7.22;;
43813;SDS011;29669;55.706;37.656;2022-09-29T13:50:40;11.40;;;6.68;;
43813;SDS011;29669;55.706;37.656;2022-09-29T13:53:34;14.05;;;6.25;;
43813;SDS011;29669;55.706;37.656;2022-09-29T13:56:24;12.43;;;6.35;;
43813;SDS011;29669;55.706;37.656;2022-09-29T13:59:13;15.20;;;6.93;;
43813;SDS011;29669;55.706;37.656;2022-09-29T14:05:53;14.70;;;6.93;;
43813;SDS011;29669;55.706;37.656;2022-09-29T14:08:45;12.60;;;6.30;;
43813;SDS011;29669;55.706;37.656;2022-09-29T14:11:40;11.65;;;7.35;;
43813;SDS011;29669;55.706;37.656;2022-09-29T14:14:38;20.20;;;7.05;;
43813;SDS011;29669;55.706;37.656;2022-09-29T14:17:35;17.05;;;7.28;;
43813;SDS011;29669;55.706;37.656;2022-09-29T14:20:32;11.68;;;7.28;;
43813;SDS011;29669;55.706;37.656;2022-09-29T14:29:29;15.25;;;7.80;;
43813;SDS011;29669;55.706;37.656;2022-09-29T14:32:33;14.15;;;6.85;;
43813;SDS011;29669;55.706;37.656;2022-09-29T14:35:40;18.10;;;6.82;;
43813;SDS011;29669;55.706;37.656;2022-09-29T14:38:48;13.05;;;7.57;;
43813;SDS011;29669;55.706;37.656;2022-09-29T14:41:58;13.38;;;6.88;;
43813;SDS011;29669;55.706;37.656;2022-09-29T14:44:48;15.02;;;7.07;;
43813;SDS011;29669;55.706;37.656;2022-09-29T14:51:21;14.55;;;8.05;;
43813;SDS011;29669;55.706;37.656;2022-09-29T15:04:05;16.42;;;7.80;;
43813;SDS011;29669;55.706;37.656;2022-09-29T15:07:02;11.68;;;6.50;;
43813;SDS011;29669;55.706;37.656;2022-09-29T15:09:52;15.38;;;7.78;;
43813;SDS011;29669;55.706;37.656;2022-09-29T15:12:45;18.45;;;8.38;;
43813;SDS011;29669;55.706;37.656;2022-09-29T15:15:37;13.95;;;8.10;;
43813;SDS011;29669;55.706;37.656;2022-09-29T15:18:34;16.10;;;8.60;;
43813;SDS011;29669;55.706;37.656;2022-09-29T15:28:24;17.35;;;9.50;;
43813;SDS011;29669;55.706;37.656;2022-09-29T15:31:35;16.25;;;8.25;;
43813;SDS011;29669;55.706;37.656;2022-09-29T15:34:23;15.48;;;8.90;;
43813;SDS011;29669;55.706;37.656;2022-09-29T15:37:12;21.58;;;10.30;;
43813;SDS011;29669;55.706;37.656;2022-09-29T15:40:02;15.75;;;8.95;;
43813;SDS011;29669;55.706;37.656;2022-09-29T15:42:51;14.77;;;9.00;;
43813;SDS011;29669;55.706;37.656;2022-09-29T15:45:42;17.60;;;10.07;;
43813;SDS011;29669;55.706;37.656;2022-09-29T15:48:40;17.05;;;8.85;;
43813;SDS011;29669;55.706;37.656;2022-09-29T15:51:28;16.48;;;8.95;;
43813;SDS011;29669;55.706;37.656;2022-09-29T15:54:17;15.05;;;8.63;;
43813;SDS011;29669;55.706;37.656;2022-09-29T15:57:06;20.83;;;9.27;;
43813;SDS011;29669;55.706;37.656;2022-09-29T16:03:44;19.98;;;10.15;;
43813;SDS011;29669;55.706;37.656;2022-09-29T16:06:37;18.48;;;9.77;;
43813;SDS011;29669;55.706;37.656;2022-09-29T16:09:31;18.27;;;9.40;;
43813;SDS011;29669;55.706;37.656;2022-09-29T16:15:32;16.92;;;8.93;;
43813;SDS011;29669;55.706;37.656;2022-09-29T16:18:28;19.10;;;9.68;;
43813;SDS011;29669;55.706;37.656;2022-09-29T16:21:25;23.05;;;9.95;;
43813;SDS011;29669;55.706;37.656;2022-09-29T16:24:23;14.20;;;8.98;;
43813;SDS011;29669;55.706;37.656;2022-09-29T16:27:38;24.65;;;9.63;;
43813;SDS011;29669;55.706;37.656;2022-09-29T16:30:33;20.55;;;10.30;;
43813;SDS011;29669;55.706;37.656;2022-09-29T16:33:25;24.52;;;10.63;;
43813;SDS011;29669;55.706;37.656;2022-09-29T16:36:18;17.88;;;9.68;;
43813;SDS011;29669;55.706;37.656;2022-09-29T16:39:09;18.75;;;10.77;;
43813;SDS011;29669;55.706;37.656;2022-09-29T16:42:13;19.63;;;10.77;;
43813;SDS011;29669;55.706;37.656;2022-09-29T16:45:12;14.05;;;9.15;;
43813;SDS011;29669;55.706;37.656;2022-09-29T16:48:07;21.17;;;10.13;;
43813;SDS011;29669;55.706;37.656;2022-09-29T16:50:59;21.25;;;10.75;;
43813;SDS011;29669;55.706;37.656;2022-09-29T16:53:59;22.30;;;9.88;;
43813;SDS011;29669;55.706;37.656;2022-09-29T16:56:48;17.23;;;10.63;;
43813;SDS011;29669;55.706;37.656;2022-09-29T16:59:47;23.80;;;10.98;;
43813;SDS011;29669;55.706;37.656;2022-09-29T17:02:40;19.25;;;10.88;;
43813;SDS011;29669;55.706;37.656;2022-09-29T17:05:29;19.60;;;10.80;;
43813;SDS011;29669;55.706;37.656;2022-09-29T17:08:37;20.23;;;10.65;;
43813;SDS011;29669;55.706;37.656;2022-09-29T17:11:25;20.00;;;12.30;;
43813;SDS011;29669;55.706;37.656;2022-09-29T17:14:15;21.13;;;10.75;;
43813;SDS011;29669;55.706;37.656;2022-09-29T17:17:05;19.98;;;10.35;;
43813;SDS011;29669;55.706;37.656;2022-09-29T17:19:54;18.83;;;11.23;;
43813;SDS011;29669;55.706;37.656;2022-09-29T17:22:46;21.42;;;11.80;;
43813;SDS011;29669;55.706;37.656;2022-09-29T17:25:49;25.95;;;12.38;;
43813;SDS011;29669;55.706;37.656;2022-09-29T17:28:37;22.63;;;10.88;;
43813;SDS011;29669;55.706;37.656;2022-09-29T17:31:26;27.75;;;11.20;;
43813;SDS011;29669;55.706;37.656;2022-09-29T17:34:16;16.65;;;10.82;;
43813;SDS011;29669;55.706;37.656;2022-09-29T17:37:08;26.05;;;10.48;;
43813;SDS011;29669;55.706;37.656;2022-09-29T17:40:24;18.23;;;10.48;;
43813;SDS011;29669;55.706;37.656;2022-09-29T17:43:17;19.48;;;11.43;;
43813;SDS011;29669;55.706;37.656;2022-09-29T17:46:07;21.90;;;11.27;;
43813;SDS011;29669;55.706;37.656;2022-09-29T17:48:58;21.70;;;11.82;;
43813;SDS011;29669;55.706;37.656;2022-09-29T17:51:48;22.52;;;11.65;;
43813;SDS011;29669;55.706;37.656;2022-09-29T17:54:36;17.60;;;11.13;;
43813;SDS011;29669;55.706;37.656;2022-09-29T17:57:26;23.90;;;12.88;;
43813;SDS011;29669;55.706;37.656;2022-09-29T18:00:17;24.40;;;12.30;;
43813;SDS011;29669;55.706;37.656;2022-09-29T18:03:10;25.10;;;12.73;;
43813;SDS011;29669;55.706;37.656;2022-09-29T18:06:00;21.05;;;12.07;;
43813;SDS011;29669;55.706;37.656;2022-09-29T18:08:48;21.35;;;11.82;;
43813;SDS011;29669;55.706;37.656;2022-09-29T18:11:40;27.35;;;11.93;;
43813;SDS011;29669;55.706;37.656;2022-09-29T18:14:30;22.15;;;11.15;;
43813;SDS011;29669;55.706;37.656;2022-09-29T18:17:22;22.30;;;12.02;;
43813;SDS011;29669;55.706;37.656;2022-09-29T18:20:15;21.35;;;12.90;;
43813;SDS011;29669;55.706;37.656;2022-09-29T18:23:05;25.20;;;12.45;;
43813;SDS011;29669;55.706;37.656;2022-09-29T18:25:53;24.92;;;11.75;;
43813;SDS011;29669;55.706;37.656;2022-09-29T18:28:42;22.70;;;12.60;;
43813;SDS011;29669;55.706;37.656;2022-09-29T18:31:34;23.98;;;11.73;;
43813;SDS011;29669;55.706;37.656;2022-09-29T18:34:23;21.05;;;13.48;;
43813;SDS011;29669;55.706;37.656;2022-09-29T18:37:11;25.35;;;13.18;;
43813;SDS011;29669;55.706;37.656;2022-09-29T18:40:00;21.10;;;11.90;;
43813;SDS011;29669;55.706;37.656;2022-09-29T18:42:50;21.27;;;12.82;;
43813;SDS011;29669;55.706;37.656;2022-09-29T18:45:39;20.52;;;11.48;;
43813;SDS011;29669;55.706;37.656;2022-09-29T18:48:29;19.67;;;12.15;;
43813;SDS011;29669;55.706;37.656;2022-09-29T18:51:18;21.27;;;11.95;;
43813;SDS011;29669;55.706;37.656;2022-09-29T18:54:07;21.90;;;12.02;;
43813;SDS011;29669;55.706;37.656;2022-09-29T18:56:56;22.77;;;12.35;;
43813;SDS011;29669;55.706;37.656;2022-09-29T18:59:44;26.70;;;14.13;;
43813;SDS011;29669;55.706;37.656;2022-09-29T19:02:36;23.42;;;12.68;;
43813;SDS011;29669;55.706;37.656;2022-09-29T19:05:25;25.02;;;12.32;;
43813;SDS011;29669;55.706;37.656;2022-09-29T19:08:18;22.50;;;13.10;;
43813;SDS011;29669;55.706;37.656;2022-09-29T19:11:11;23.88;;;12.77;;
43813;SDS011;29669;55.706;37.656;2022-09-29T19:14:04;20.67;;;12.63;;
43813;SDS011;29669;55.706;37.656;2022-09-29T19:16:53;22.38;;;12.25;;
43813;SDS011;29669;55.706;37.656;2022-09-29T19:19:42;24.13;;;12.70;;
43813;SDS011;29669;55.706;37.656;2022-09-29T19:22:31;27.00;;;12.07;;
43813;SDS011;29669;55.706;37.656;2022-09-29T19:25:25;21.08;;;11.68;;
43813;SDS011;29669;55.706;37.656;2022-09-29T19:28:17;23.00;;;11.93;;
43813;SDS011;29669;55.706;37.656;2022-09-29T19:31:11;28.10;;;13.10;;
43813;SDS011;29669;55.706;37.656;2022-09-29T19:34:02;21.73;;;12.27;;
43813;SDS011;29669;55.706;37.656;2022-09-29T19:36:51;20.02;;;12.10;;
43813;SDS011;29669;55.706;37.656;2022-09-29T19:39:40;19.10;;;12.07;;
43813;SDS011;29669;55.706;37.656;2022-09-29T19:42:33;22.20;;;11.48;;
43813;SDS011;29669;55.706;37.656;2022-09-29T19:45:21;19.50;;;12.40;;
43813;SDS011;29669;55.706;37.656;2022-09-29T19:48:12;26.17;;;13.88;;
43813;SDS011;29669;55.706;37.656;2022-09-29T19:51:02;21.88;;;11.40;;
43813;SDS011;29669;55.706;37.656;2022-09-29T19:54:09;25.15;;;11.73;;
43813;SDS011;29669;55.706;37.656;2022-09-29T19:56:59;21.83;;;12.18;;
43813;SDS011;29669;55.706;37.656;2022-09-29T19:59:53;20.65;;;11.05;;
43813;SDS011;29669;55.706;37.656;2022-09-29T20:02:41;22.23;;;12.00;;
43813;SDS011;29669;55.706;37.656;2022-09-29T20:05:33;19.23;;;11.45;;
43813;SDS011;29669;55.706;37.656;2022-09-29T20:08:22;24.00;;;12.55;;
43813;SDS011;29669;55.706;37.656;2022-09-29T20:11:10;25.73;;;13.20;;
43813;SDS011;29669;55.706;37.656;2022-09-29T20:13:59;22.88;;;11.70;;
43813;SDS011;29669;55.706;37.656;2022-09-29T20:16:50;17.40;;;11.43;;
43813;SDS011;29669;55.706;37.656;2022-09-29T20:19:40;23.38;;;11.45;;
43813;SDS011;29669;55.706;37.656;2022-09-29T20:22:31;21.77;;;11.95;;
43813;SDS011;29669;55.706;37.656;2022-09-29T20:25:20;28.48;;;12.02;;
43813;SDS011;29669;55.706;37.656;2022-09-29T20:28:08;19.42;;;10.73;;
43813;SDS011;29669;55.706;37.656;2022-09-29T20:31:02;23.02;;;11.15;;